createdAt,value
2023-02-19T00:05:22.159Z,3.65
2023-02-19T00:10:44.883Z,3.62
2023-02-19T00:16:07.300Z,3.05
2023-02-19T00:21:31.766Z,3.10
2023-02-19T00:26:55.419Z,3.42
2023-02-19T00:32:17.740Z,3.25
2023-02-19T00:37:40.002Z,3.30
2023-02-19T00:43:02.216Z,3.35
2023-02-19T00:48:24.427Z,4.53
2023-02-19T00:53:46.967Z,4.05
2023-02-19T00:59:09.853Z,4.50
2023-02-19T01:04:32.225Z,4.20
2023-02-19T01:09:54.592Z,3.80
2023-02-19T01:15:17.138Z,4.08
2023-02-19T01:20:40.073Z,4.00
2023-02-19T01:26:02.426Z,3.58
2023-02-19T01:31:29.035Z,3.37
2023-02-19T01:36:52.341Z,3.55
2023-02-19T01:42:21.327Z,3.17
2023-02-19T01:47:43.599Z,3.50
2023-02-19T01:53:07.635Z,3.98
2023-02-19T01:58:31.027Z,4.87
2023-02-19T02:03:56.472Z,3.35
2023-02-19T02:09:37.086Z,3.70
2023-02-19T02:15:01.084Z,3.65
2023-02-19T02:20:47.397Z,4.25
2023-02-19T02:26:47.513Z,4.50
2023-02-19T02:32:26.224Z,3.87
2023-02-19T02:37:51.919Z,3.98
2023-02-19T02:43:15.732Z,3.58
2023-02-19T02:49:01.510Z,3.45
2023-02-19T02:54:57.590Z,3.85
2023-02-19T03:00:21.889Z,2.37
2023-02-19T03:05:52.402Z,3.62
2023-02-19T03:11:38.493Z,3.75
2023-02-19T03:17:23.712Z,4.05
2023-02-19T03:22:49.361Z,3.37
2023-02-19T03:28:17.682Z,3.70
2023-02-19T03:33:42.226Z,3.62
2023-02-19T03:39:13.963Z,3.37
2023-02-19T03:44:55.096Z,3.72
2023-02-19T03:50:36.870Z,3.67
2023-02-19T03:56:22.507Z,3.92
2023-02-19T04:01:55.332Z,3.70
2023-02-19T04:07:18.210Z,4.22
2023-02-19T04:12:44.147Z,2.83
2023-02-19T04:18:20.227Z,3.67
2023-02-19T04:23:47.282Z,3.40
2023-02-19T04:29:09.601Z,3.58
2023-02-19T04:34:31.911Z,3.85
2023-02-19T04:39:54.129Z,3.25
2023-02-19T04:45:16.618Z,3.53
2023-02-19T04:50:40.144Z,3.77
2023-02-19T04:56:02.498Z,3.37
2023-02-19T05:01:25.240Z,3.50
2023-02-19T05:06:48.089Z,3.55
2023-02-19T05:12:10.846Z,3.70
2023-02-19T05:17:33.028Z,3.83
2023-02-19T05:22:55.229Z,3.85
2023-02-19T05:28:20.467Z,3.58
2023-02-19T05:33:44.603Z,4.47
2023-02-19T05:39:09.714Z,5.10
2023-02-19T05:44:31.887Z,4.37
2023-02-19T05:49:54.167Z,4.90
2023-02-19T05:55:17.632Z,5.70
2023-02-19T06:00:40.254Z,4.75
2023-02-19T06:06:02.507Z,4.90
2023-02-19T06:11:25.081Z,4.55
2023-02-19T06:16:47.486Z,4.15
2023-02-19T06:22:09.672Z,4.20
2023-02-19T06:27:31.923Z,3.90
2023-02-19T06:32:54.674Z,4.10
2023-02-19T06:38:16.856Z,4.03
2023-02-19T06:43:39.410Z,4.15
2023-02-19T06:49:02.819Z,4.97
2023-02-19T06:54:26.560Z,4.58
2023-02-19T06:59:48.880Z,4.80
2023-02-19T07:05:11.335Z,4.92
2023-02-19T07:10:33.616Z,4.43
2023-02-19T07:15:55.835Z,4.03
2023-02-19T07:21:25.304Z,4.47
2023-02-19T07:26:50.237Z,5.40
2023-02-19T07:32:14.022Z,5.03
2023-02-19T07:37:37.854Z,4.67
2023-02-19T07:43:01.029Z,5.03
2023-02-19T07:48:26.532Z,4.10
2023-02-19T07:53:54.211Z,5.12
2023-02-19T07:59:20.255Z,5.05
2023-02-19T08:04:46.297Z,4.78
2023-02-19T08:10:28.903Z,4.35
2023-02-19T08:15:56.292Z,4.95
2023-02-19T08:21:21.340Z,3.77
2023-02-19T08:26:43.807Z,3.92
2023-02-19T08:32:06.209Z,3.95
2023-02-19T08:37:29.165Z,3.10
2023-02-19T08:42:52.756Z,3.20
2023-02-19T08:48:18.678Z,3.30
2023-02-19T08:53:45.862Z,2.98
2023-02-19T08:59:08.993Z,3.55
2023-02-19T09:04:32.135Z,2.90
2023-02-19T09:09:58.247Z,2.52
2023-02-19T09:15:21.006Z,2.47
2023-02-19T09:20:43.466Z,2.70
2023-02-19T09:26:14.426Z,3.25
2023-02-19T09:31:37.172Z,2.50
2023-02-19T09:37:02.627Z,2.35
2023-02-19T09:42:33.104Z,2.70
2023-02-19T09:47:55.671Z,2.20
2023-02-19T09:53:25.425Z,2.67
2023-02-19T09:59:09.862Z,2.30
2023-02-19T10:04:32.052Z,2.40
2023-02-19T10:10:06.726Z,2.33
2023-02-19T10:16:00.331Z,2.27
2023-02-19T10:21:25.248Z,2.47
2023-02-19T10:26:47.534Z,2.50
2023-02-19T10:37:58.579Z,2.70
2023-02-19T10:43:30.165Z,1.37
2023-02-19T10:48:59.731Z,1.80
2023-02-19T10:54:32.814Z,1.80
2023-02-19T11:00:09.608Z,2.37
2023-02-19T11:05:33.914Z,1.90
2023-02-19T11:11:01.028Z,1.30
2023-02-19T11:16:24.776Z,1.73
2023-02-19T11:21:48.808Z,2.10
2023-02-19T11:27:12.452Z,1.70
2023-02-19T11:32:49.060Z,2.07
2023-02-19T11:38:18.214Z,2.73
2023-02-19T11:44:09.411Z,1.77
2023-02-19T11:49:57.728Z,1.57
2023-02-19T11:55:56.221Z,1.50
2023-02-19T12:07:49.575Z,1.20
2023-02-19T12:14:04.318Z,1.20
2023-02-19T12:19:57.248Z,0.90
2023-02-19T12:25:34.532Z,1.10
2023-02-19T12:31:16.963Z,1.20
2023-02-19T12:37:09.620Z,1.00
2023-02-19T12:42:50.980Z,0.90
2023-02-19T12:48:48.862Z,0.90
2023-02-19T12:54:33.783Z,1.00
2023-02-19T13:00:07.835Z,1.10
2023-02-19T13:06:20.633Z,0.77
2023-02-19T13:11:50.344Z,1.10
2023-02-19T13:17:35.664Z,1.10
2023-02-19T13:23:33.175Z,1.20
2023-02-19T13:29:47.970Z,1.00
2023-02-19T13:36:03.412Z,1.13
2023-02-19T13:41:38.158Z,1.53
2023-02-19T13:47:05.018Z,1.00
2023-02-19T13:52:44.124Z,1.00
2023-02-19T13:58:24.769Z,1.07
2023-02-19T14:04:03.854Z,1.20
2023-02-19T14:09:47.084Z,1.10
2023-02-19T14:15:28.627Z,1.00
2023-02-19T14:20:57.109Z,1.40
2023-02-19T14:26:20.608Z,2.98
2023-02-19T14:31:50.658Z,1.27
2023-02-19T14:42:35.246Z,0.80
2023-02-19T14:47:59.626Z,1.00
2023-02-19T14:53:25.223Z,1.03
2023-02-19T14:58:49.254Z,0.50
2023-02-19T15:04:13.260Z,0.80
2023-02-19T15:09:37.989Z,1.07
2023-02-19T15:15:02.882Z,0.82
2023-02-19T15:20:31.407Z,0.97
2023-02-19T15:25:55.761Z,1.10
2023-02-19T15:31:21.681Z,1.10
2023-02-19T15:36:47.370Z,0.70
2023-02-19T15:42:15.765Z,1.10
2023-02-19T15:48:03.473Z,1.40
2023-02-19T15:53:34.579Z,1.20
2023-02-19T15:59:10.507Z,1.17
2023-02-19T16:04:34.066Z,1.73
2023-02-19T16:09:59.589Z,1.63
2023-02-19T16:15:27.224Z,1.35
2023-02-19T16:20:51.162Z,1.47
2023-02-19T16:26:22.997Z,1.80
2023-02-19T16:31:45.234Z,1.90
2023-02-19T16:37:09.006Z,1.93
2023-02-19T16:42:31.701Z,1.47
2023-02-19T16:47:55.661Z,1.50
2023-02-19T16:53:26.683Z,1.13
2023-02-19T16:58:48.915Z,2.10
2023-02-19T17:04:19.663Z,1.50
2023-02-19T17:09:42.011Z,1.73
2023-02-19T17:15:04.400Z,2.23
2023-02-19T17:20:39.526Z,1.60
2023-02-19T17:26:01.908Z,1.60
2023-02-19T17:31:24.984Z,2.12
2023-02-19T17:36:48.408Z,1.77
2023-02-19T17:42:11.444Z,2.37
2023-02-19T17:47:33.935Z,2.80
2023-02-19T17:52:56.164Z,2.73
2023-02-19T17:58:18.958Z,2.40
2023-02-19T18:03:41.784Z,3.42
2023-02-19T18:09:08.883Z,4.37
2023-02-19T18:14:31.570Z,4.20
2023-02-19T18:19:55.454Z,4.17
2023-02-19T18:25:18.378Z,5.97
2023-02-19T18:30:41.480Z,5.93
2023-02-19T18:36:03.968Z,6.40
2023-02-19T18:41:28.065Z,6.23
2023-02-19T18:46:50.268Z,4.95
2023-02-19T18:52:13.360Z,5.10
2023-02-19T18:57:36.951Z,3.70
2023-02-19T19:03:05.353Z,6.00
2023-02-19T19:08:30.537Z,5.73
2023-02-19T19:13:52.635Z,5.83
2023-02-19T19:19:15.636Z,6.57
2023-02-19T19:24:37.989Z,7.87
2023-02-19T19:30:00.505Z,6.05
2023-02-19T19:35:24.396Z,5.08
2023-02-19T19:40:48.882Z,5.73
2023-02-19T19:46:15.238Z,4.80
2023-02-19T19:51:46.473Z,6.53
2023-02-19T19:57:11.526Z,6.13
2023-02-19T20:02:36.319Z,6.37
2023-02-19T20:08:00.667Z,5.30
2023-02-19T20:13:26.748Z,5.12
2023-02-19T20:18:49.669Z,5.75
2023-02-19T20:24:12.974Z,5.20
2023-02-19T20:29:37.364Z,4.70
2023-02-19T20:35:00.783Z,4.92
2023-02-19T20:40:27.063Z,4.70
2023-02-19T20:45:51.884Z,4.33
2023-02-19T20:51:16.204Z,4.60
2023-02-19T20:56:39.994Z,4.37
2023-02-19T21:02:05.619Z,4.20
2023-02-19T21:07:30.655Z,3.20
2023-02-19T21:12:56.735Z,3.27
2023-02-19T21:18:21.296Z,3.67
2023-02-19T21:23:45.858Z,3.10
2023-02-19T21:29:14.400Z,3.40
2023-02-19T21:34:41.378Z,3.35
2023-02-19T21:40:06.270Z,3.20
2023-02-19T21:45:30.751Z,3.20
2023-02-19T21:50:55.392Z,3.23
2023-02-19T21:56:21.657Z,4.00
2023-02-19T22:01:51.417Z,3.27
2023-02-19T22:07:15.615Z,2.97
2023-02-19T22:12:40.207Z,3.27
2023-02-19T22:18:05.279Z,3.10
2023-02-19T22:23:29.515Z,2.90
2023-02-19T22:28:53.783Z,3.45
2023-02-19T22:34:18.787Z,3.15
2023-02-19T22:39:44.106Z,2.80
2023-02-19T22:45:07.709Z,2.62
2023-02-19T22:50:38.147Z,4.37
2023-02-19T22:56:02.894Z,3.45
2023-02-19T23:01:28.421Z,3.00
2023-02-19T23:06:55.556Z,2.70
2023-02-19T23:12:24.586Z,2.80
2023-02-19T23:17:48.464Z,3.10
2023-02-19T23:23:11.464Z,3.65
2023-02-19T23:28:36.627Z,2.95
2023-02-19T23:34:00.911Z,3.40
2023-02-19T23:39:27.040Z,3.17
2023-02-19T23:44:53.289Z,3.40
2023-02-19T23:50:17.604Z,3.30
2023-02-19T23:55:41.456Z,3.12
